Nippon Maru — 3FDA7 — position and weather

sailwx.info

Track history (hours):
 
Tides and Currents Weather Stations Pressure Air Temp Water Temp Dewpoint Dewpoint Depression Visibility Wind Speed Wind Dir Waves Ship Positions

Nippon Maru

Last reported at 2018-Feb-04 14:32 UTC. Time now 2018-Feb-19 18:08 UTC.
Position N 01°19' E 103°19'.
Warning: this ship's position is 15 days out of date.

Length 190 m; draft 8.4 m.

Type: Cargo ship. MMSI: 353814000.

Date/timePositionNaut miles runAvg speedWind from/ knotsBaromVisibWave heightAir tempDewpointWater temp
2018-Feb-04 14:32N 01°19' E 103°19'214.6
2018-Feb-04 14:24N 01°18' E 103°21'614.7
2018-Feb-04 13:59N 01°14' E 103°26'814.7
2018-Feb-04 13:27N 01°12' E 103°33'613.7
2018-Feb-04 13:00N 01°11' E 103°39'612.4
2018-Feb-04 12:30N 01°09' E 103°45'612.1
2018-Feb-04 12:00N 01°12' E 103°51'611.9
2018-Feb-04 11:30N 01°14' E 103°56'3 1.9
2018-Feb-04 09:43N 01°17' E 103°59'0 0.0
2018-Feb-04 08:49N 01°17' E 103°59'0 0.1
2018-Feb-04 08:22N 01°17' E 103°59'0 0.0
2018-Feb-04 06:04N 01°17' E 103°58'0 0.2
2018-Feb-04 05:37N 01°17' E 103°58'0 0.1
2018-Feb-04 05:25N 01°17' E 103°58'0 0.0
2018-Feb-04 04:55N 01°17' E 103°58'0 0.0
2018-Feb-04 04:22N 01°17' E 103°58'0 0.0
2018-Feb-04 03:55N 01°17' E 103°58'0 0.0
2018-Feb-04 03:22N 01°17' E 103°58'1 2.3
2018-Feb-04 03:00N 01°16' E 103°58'2 3.8
2018-Feb-04 02:30N 01°16' E 103°59'4 8.2
2018-Feb-04 02:00N 01°16' E 104°03'5 8.4
2018-Feb-04 01:28N 01°17' E 104°08'  
2018-Jan-25 16:35N 33°53' E 138°08'210.0
2018-Jan-25 16:23N 33°55' E 138°10'5 9.9
2018-Jan-25 15:55N 33°58' E 138°14'410.1
2018-Jan-25 15:29N 34°01' E 138°18'610.3
2018-Jan-25 14:56N 34°04' E 138°23'  
Track history (hours):
 
Tides and Currents Weather Stations Pressure Air Temp Water Temp Dewpoint Dewpoint Depression Visibility Wind Speed Wind Dir Waves Ship Positions

Nippon Maru

Last reported at 2018-Feb-04 14:32 UTC. Time now 2018-Feb-19 18:08 UTC.
Position N 01°19' E 103°19'.
Warning: this ship's position is 15 days out of date.

Length 190 m; draft 8.4 m.

Type: Cargo ship. MMSI: 353814000.

Date/timePositionNaut miles runAvg speedWind from/ knotsBaromVisibWave heightAir tempDewpointWater temp
2018-Feb-04 14:32N 01°19' E 103°19'214.6
2018-Feb-04 14:24N 01°18' E 103°21'614.7
2018-Feb-04 13:59N 01°14' E 103°26'814.7
2018-Feb-04 13:27N 01°12' E 103°33'613.7
2018-Feb-04 13:00N 01°11' E 103°39'612.4
2018-Feb-04 12:30N 01°09' E 103°45'612.1
2018-Feb-04 12:00N 01°12' E 103°51'611.9
2018-Feb-04 11:30N 01°14' E 103°56'3 1.9
2018-Feb-04 09:43N 01°17' E 103°59'0 0.0
2018-Feb-04 08:49N 01°17' E 103°59'0 0.1
2018-Feb-04 08:22N 01°17' E 103°59'0 0.0
2018-Feb-04 06:04N 01°17' E 103°58'0 0.2
2018-Feb-04 05:37N 01°17' E 103°58'0 0.1
2018-Feb-04 05:25N 01°17' E 103°58'0 0.0
2018-Feb-04 04:55N 01°17' E 103°58'0 0.0
2018-Feb-04 04:22N 01°17' E 103°58'0 0.0
2018-Feb-04 03:55N 01°17' E 103°58'0 0.0
2018-Feb-04 03:22N 01°17' E 103°58'1 2.3
2018-Feb-04 03:00N 01°16' E 103°58'2 3.8
2018-Feb-04 02:30N 01°16' E 103°59'4 8.2
2018-Feb-04 02:00N 01°16' E 104°03'5 8.4
2018-Feb-04 01:28N 01°17' E 104°08'  
2018-Jan-25 16:35N 33°53' E 138°08'210.0
2018-Jan-25 16:23N 33°55' E 138°10'5 9.9
2018-Jan-25 15:55N 33°58' E 138°14'410.1
2018-Jan-25 15:29N 34°01' E 138°18'610.3
2018-Jan-25 14:56N 34°04' E 138°23'  

Dump ship's entire track history